Time;durP1;ratioP1;P1;durP2;ratioP2;P2;SDS_P1;SDS_P2;PMS_P1;PMS_P2;Temp;Humidity;BMP_temperature;BMP_pressure;BME280_temperature;BME280_humidity;BME280_pressure;Samples;Min_cycle;Max_cycle;Signal;HPM_P1;HPM_P2
2021/06/20 00:00:44;;;;;;;20.98;18.77;;;18.60;90.00;;;;;;2088751;28;20051;-89
2021/06/20 00:01:45;;;;;;;20.00;17.90;;;18.60;90.00;;;;;;2083843;28;20167;-88
2021/06/20 00:02:47;;;;;;;19.67;17.58;;;18.60;90.00;;;;;;2082332;28;20159;-88
2021/06/20 00:03:47;;;;;;;20.40;18.00;;;18.60;90.00;;;;;;2082286;28;20021;-88
2021/06/20 00:04:48;;;;;;;22.05;19.75;;;18.70;90.10;;;;;;2072350;28;20576;-88
2021/06/20 00:05:54;;;;;;;23.35;19.33;;;18.70;90.10;;;;;;2060736;28;20039;-88
2021/06/20 00:06:54;;;;;;;21.85;18.95;;;18.70;90.20;;;;;;2085619;28;20071;-88
2021/06/20 00:07:56;;;;;;;22.13;19.52;;;18.70;90.20;;;;;;2087438;28;20048;-89
2021/06/20 00:08:58;;;;;;;23.30;20.17;;;18.70;90.20;;;;;;2086325;28;20056;-87
2021/06/20 00:10:01;;;;;;;21.50;19.20;;;18.70;90.20;;;;;;2081832;28;20048;-87
2021/06/20 00:11:01;;;;;;;22.13;19.80;;;18.70;90.30;;;;;;2080824;28;20028;-87
2021/06/20 00:12:02;;;;;;;22.23;19.35;;;18.70;90.30;;;;;;2088269;28;20060;-88
2021/06/20 00:13:05;;;;;;;23.88;21.27;;;18.80;90.30;;;;;;2065417;28;20054;-87
2021/06/20 00:14:07;;;;;;;23.00;20.58;;;18.80;90.30;;;;;;2065560;28;20027;-90
2021/06/20 00:15:11;;;;;;;22.70;20.33;;;18.80;90.40;;;;;;2065655;28;20102;-90
2021/06/20 00:16:12;;;;;;;20.02;17.88;;;18.80;90.40;;;;;;2067940;28;20120;-90
2021/06/20 00:17:12;;;;;;;22.45;20.08;;;18.90;90.40;;;;;;2080221;28;20037;-88
2021/06/20 00:18:14;;;;;;;20.88;18.75;;;18.80;90.40;;;;;;2070706;28;20027;-89
2021/06/20 00:19:15;;;;;;;22.08;18.88;;;18.90;90.40;;;;;;2063838;28;20038;-89
2021/06/20 00:20:18;;;;;;;20.42;18.30;;;18.90;90.40;;;;;;2073688;28;20046;-89
2021/06/20 00:21:20;;;;;;;20.83;18.63;;;18.90;90.40;;;;;;2077485;28;20017;-89
2021/06/20 00:22:21;;;;;;;21.02;18.35;;;18.90;90.40;;;;;;2085547;28;20023;-89
2021/06/20 00:23:22;;;;;;;22.42;20.02;;;18.90;90.40;;;;;;2081701;28;20052;-89
2021/06/20 00:24:22;;;;;;;20.85;18.52;;;19.00;90.40;;;;;;2073334;28;20045;-90
2021/06/20 00:25:24;;;;;;;23.52;20.63;;;19.00;90.40;;;;;;2067882;28;20140;-88
2021/06/20 00:26:24;;;;;;;22.63;19.88;;;19.00;90.40;;;;;;2080517;28;20109;-89
2021/06/20 00:27:25;;;;;;;23.42;20.90;;;19.00;90.40;;;;;;2073973;28;20438;-89
2021/06/20 00:28:26;;;;;;;22.75;20.13;;;19.00;90.70;;;;;;2073128;28;20057;-89
2021/06/20 00:29:27;;;;;;;23.02;20.55;;;19.00;90.50;;;;;;2081620;28;20056;-89
2021/06/20 00:30:30;;;;;;;23.17;20.73;;;19.00;90.50;;;;;;2076916;28;20502;-88
2021/06/20 00:31:31;;;;;;;22.48;20.08;;;19.00;90.50;;;;;;2073640;28;20037;-88
2021/06/20 00:32:31;;;;;;;22.40;20.00;;;19.00;90.50;;;;;;2080708;28;20030;-89
2021/06/20 00:33:32;;;;;;;23.33;20.92;;;19.00;90.50;;;;;;2076263;28;20033;-89
2021/06/20 00:34:33;;;;;;;25.55;22.60;;;19.00;90.60;;;;;;2070503;28;20030;-88
2021/06/20 00:35:34;;;;;;;25.35;22.65;;;19.00;90.60;;;;;;2079218;28;20376;-89
2021/06/20 00:36:35;;;;;;;27.73;22.67;;;19.00;90.60;;;;;;2082959;28;20036;-90
2021/06/20 00:37:35;;;;;;;24.42;21.83;;;19.00;90.60;;;;;;2081500;28;20120;-89
2021/06/20 00:38:37;;;;;;;22.40;20.10;;;19.00;90.60;;;;;;2091757;28;20024;-89
2021/06/20 00:39:37;;;;;;;22.65;20.08;;;19.00;90.60;;;;;;2081894;28;20029;-91
2021/06/20 00:40:38;;;;;;;22.08;19.67;;;19.00;90.60;;;;;;2066025;28;20034;-89
2021/06/20 00:41:39;;;;;;;23.45;20.70;;;19.00;90.60;;;;;;2076949;28;20021;-89
2021/06/20 00:42:39;;;;;;;24.35;21.85;;;19.10;90.70;;;;;;2073286;28;20069;-89
2021/06/20 00:43:40;;;;;;;22.27;19.92;;;19.00;90.70;;;;;;2074116;28;20484;-90
2021/06/20 00:44:45;;;;;;;23.48;19.83;;;19.10;90.70;;;;;;2073813;28;20049;-88
2021/06/20 00:45:46;;;;;;;21.50;19.20;;;19.00;90.90;;;;;;2082294;28;20057;-89
2021/06/20 00:46:47;;;;;;;23.33;20.83;;;19.00;90.60;;;;;;2095888;28;20062;-89
2021/06/20 00:47:48;;;;;;;24.33;21.73;;;19.00;90.70;;;;;;2073638;28;20083;-90
2021/06/20 00:48:49;;;;;;;22.60;20.17;;;19.10;90.70;;;;;;2080591;28;20049;-89
2021/06/20 00:49:49;;;;;;;22.17;19.77;;;19.10;90.70;;;;;;2080712;28;20021;-89
2021/06/20 00:50:50;;;;;;;20.85;18.58;;;19.10;90.70;;;;;;2073497;28;20034;-89
2021/06/20 00:51:51;;;;;;;20.35;18.25;;;19.10;90.70;;;;;;2086725;28;20567;-89
2021/06/20 00:52:57;;;;;;;20.25;18.13;;;19.10;90.70;;;;;;2073392;28;20029;-90
2021/06/20 00:53:58;;;;;;;20.85;18.65;;;19.10;90.70;;;;;;2065896;28;20022;-89
2021/06/20 00:54:59;;;;;;;21.70;19.40;;;19.10;90.70;;;;;;2081803;28;20449;-90
2021/06/20 00:56:00;;;;;;;20.67;18.50;;;19.10;90.70;;;;;;2082381;28;20507;-89
2021/06/20 00:57:01;;;;;;;19.65;17.55;;;19.10;90.70;;;;;;2072489;28;20060;-90
2021/06/20 00:58:03;;;;;;;18.88;16.88;;;19.10;90.70;;;;;;2073313;28;20030;-89
2021/06/20 00:59:04;;;;;;;19.55;17.45;;;19.10;90.70;;;;;;2078956;28;20025;-89
2021/06/20 01:00:07;;;;;;;20.15;17.98;;;19.20;90.70;;;;;;2072924;28;20037;-89
2021/06/20 01:01:08;;;;;;;18.73;16.73;;;19.20;90.70;;;;;;2071149;28;20026;-89
2021/06/20 01:02:12;;;;;;;19.20;16.42;;;19.20;90.70;;;;;;2073410;28;20025;-89
2021/06/20 01:03:13;;;;;;;18.40;16.52;;;19.20;90.70;;;;;;2076729;28;20026;-89
2021/06/20 01:04:14;;;;;;;17.90;16.02;;;19.20;90.60;;;;;;2086636;28;20037;-89
2021/06/20 01:05:15;;;;;;;18.15;15.65;;;19.20;90.90;;;;;;2081521;28;20116;-88
2021/06/20 01:06:15;;;;;;;16.95;14.45;;;19.20;90.60;;;;;;2081318;28;20018;-88
2021/06/20 01:07:19;;;;;;;18.15;16.15;;;19.30;91.00;;;;;;2066392;28;20068;-88
2021/06/20 01:08:20;;;;;;;17.08;15.27;;;19.30;90.70;;;;;;2070392;28;20100;-88
2021/06/20 01:09:20;;;;;;;16.55;14.85;;;19.30;90.70;;;;;;2074939;28;20488;-88
2021/06/20 01:10:23;;;;;;;16.85;15.15;;;19.30;90.70;;;;;;2073125;28;20369;-87
2021/06/20 01:11:24;;;;;;;15.63;14.02;;;19.30;90.70;;;;;;2089125;28;20025;-88
2021/06/20 01:12:25;;;;;;;16.85;14.35;;;19.30;90.60;;;;;;2086606;28;20067;-87
2021/06/20 01:13:25;;;;;;;15.60;13.65;;;19.40;90.70;;;;;;2087337;28;20033;-88
2021/06/20 01:14:27;;;;;;;15.32;13.63;;;19.40;90.70;;;;;;2081437;28;20096;-88
2021/06/20 01:15:27;;;;;;;15.55;13.93;;;19.40;90.70;;;;;;2072029;28;20026;-88
2021/06/20 01:16:29;;;;;;;14.93;13.43;;;19.40;90.60;;;;;;2063219;28;20039;-88
2021/06/20 01:17:29;;;;;;;15.80;13.50;;;19.50;90.60;;;;;;2064982;28;20026;-89
2021/06/20 01:18:30;;;;;;;13.70;12.30;;;19.40;90.60;;;;;;2074294;28;20030;-88
2021/06/20 01:19:33;;;;;;;12.68;11.38;;;19.50;90.60;;;;;;2088879;28;20029;-89
2021/06/20 01:20:33;;;;;;;13.23;11.82;;;19.50;90.60;;;;;;2072884;28;20034;-89
2021/06/20 01:21:34;;;;;;;13.15;11.85;;;19.50;90.60;;;;;;2078137;28;20064;-90
2021/06/20 01:22:37;;;;;;;12.38;11.00;;;19.50;90.60;;;;;;2073238;28;20057;-90
2021/06/20 01:23:39;;;;;;;12.70;11.27;;;19.50;90.60;;;;;;2084416;28;20478;-90
2021/06/20 01:24:39;;;;;;;12.38;11.07;;;19.60;90.60;;;;;;2088481;28;20065;-90
2021/06/20 01:25:42;;;;;;;12.55;11.18;;;19.60;90.60;;;;;;2075296;28;20421;-89
2021/06/20 01:26:42;;;;;;;12.30;10.77;;;19.60;90.90;;;;;;2073244;28;20034;-89
2021/06/20 01:27:46;;;;;;;12.50;11.20;;;19.60;90.60;;;;;;2056474;28;20504;-89
2021/06/20 01:28:51;;;;;;;12.88;11.45;;;19.60;90.60;;;;;;2064934;28;20059;-89
2021/06/20 01:29:52;;;;;;;15.43;12.00;;;19.60;90.60;;;;;;2065437;28;20041;-89
2021/06/20 01:30:59;;;;;;;13.65;12.18;;;19.60;90.60;;;;;;2077162;28;20029;-88
2021/06/20 01:32:01;;;;;;;13.43;12.00;;;19.70;90.60;;;;;;2105436;28;20084;-89
2021/06/20 01:33:05;;;;;;;13.43;11.88;;;19.60;90.50;;;;;;2098572;28;20029;-89
2021/06/20 01:34:06;;;;;;;13.50;12.07;;;19.70;90.60;;;;;;2091131;28;20482;-89
2021/06/20 01:35:11;;;;;;;12.52;11.20;;;19.70;90.60;;;;;;2080919;28;20025;-89
2021/06/20 01:36:12;;;;;;;12.00;10.70;;;19.70;90.60;;;;;;2081547;28;20032;-88
2021/06/20 01:37:15;;;;;;;12.70;10.98;;;19.70;90.60;;;;;;2091221;28;20021;-88
2021/06/20 01:38:16;;;;;;;11.75;10.55;;;19.70;90.60;;;;;;2091593;28;20450;-89
2021/06/20 01:39:17;;;;;;;12.13;10.93;;;19.70;90.60;;;;;;2088427;28;20029;-88
2021/06/20 01:40:19;;;;;;;12.45;10.93;;;19.70;90.60;;;;;;2080998;28;20033;-86
2021/06/20 01:41:20;;;;;;;12.15;10.90;;;19.70;90.60;;;;;;2072929;28;20033;-85
2021/06/20 01:42:20;;;;;;;12.88;11.50;;;19.70;90.60;;;;;;2082605;28;20029;-87
2021/06/20 01:43:21;;;;;;;12.40;11.02;;;19.80;90.60;;;;;;2066788;28;20122;-87
2021/06/20 01:44:22;;;;;;;14.05;11.63;;;19.70;90.60;;;;;;2075317;28;20070;-88
2021/06/20 01:45:24;;;;;;;12.48;11.18;;;19.70;90.60;;;;;;2070828;28;20516;-87
2021/06/20 01:46:24;;;;;;;12.93;11.55;;;19.70;90.60;;;;;;2079166;28;20021;-86
2021/06/20 01:47:27;;;;;;;11.88;10.65;;;19.70;90.70;;;;;;2081496;28;20049;-86
2021/06/20 01:48:27;;;;;;;12.43;11.13;;;19.80;90.70;;;;;;2076919;28;20037;-86
2021/06/20 01:49:28;;;;;;;13.05;11.50;;;19.80;90.70;;;;;;2075087;28;20026;-86
2021/06/20 01:50:30;;;;;;;12.48;10.93;;;19.80;90.70;;;;;;2076200;28;20120;-86
2021/06/20 01:51:31;;;;;;;13.18;11.50;;;19.80;90.60;;;;;;2083913;28;20033;-87
2021/06/20 01:52:31;;;;;;;12.35;10.15;;;19.80;90.60;;;;;;2078505;28;20075;-87
2021/06/20 01:53:32;;;;;;;12.35;11.05;;;19.80;90.60;;;;;;2067458;28;20062;-87
2021/06/20 01:54:35;;;;;;;11.45;10.02;;;19.80;90.60;;;;;;2075451;28;20049;-86
2021/06/20 01:55:38;;;;;;;12.20;10.15;;;19.80;90.60;;;;;;2079682;28;20022;-87
2021/06/20 01:56:39;;;;;;;11.52;10.27;;;19.80;90.60;;;;;;2091726;28;20506;-86
2021/06/20 01:57:41;;;;;;;11.05;9.93;;;19.80;90.60;;;;;;2103769;28;20056;-87
2021/06/20 01:58:42;;;;;;;12.15;10.73;;;19.80;90.60;;;;;;2082604;28;20400;-86
2021/06/20 01:59:42;;;;;;;12.48;10.68;;;19.80;90.60;;;;;;2082576;28;20084;-86
2021/06/20 02:00:52;;;;;;;13.10;10.43;;;19.80;90.60;;;;;;2081912;28;20808;-86
2021/06/20 02:01:52;;;;;;;11.40;10.18;;;19.80;90.60;;;;;;2082433;28;20047;-86
2021/06/20 02:02:53;;;;;;;11.70;10.45;;;19.80;90.60;;;;;;2079139;28;20026;-86
2021/06/20 02:03:53;;;;;;;12.05;10.00;;;19.80;90.60;;;;;;2074408;28;20456;-87
2021/06/20 02:04:55;;;;;;;12.45;11.15;;;19.80;90.70;;;;;;2074149;28;20034;-86
2021/06/20 02:06:00;;;;;;;12.15;10.88;;;19.80;90.60;;;;;;2087262;28;20025;-87
2021/06/20 02:07:01;;;;;;;12.25;10.90;;;19.80;90.70;;;;;;2078015;28;20034;-87
2021/06/20 02:08:02;;;;;;;11.80;10.50;;;19.80;90.60;;;;;;2073447;28;20582;-87
2021/06/20 02:09:04;;;;;;;12.63;10.68;;;19.80;90.70;;;;;;2066296;28;20042;-87
2021/06/20 02:10:08;;;;;;;12.98;11.55;;;19.80;90.70;;;;;;2082051;28;20034;-87
2021/06/20 02:11:10;;;;;;;12.18;10.88;;;19.80;90.70;;;;;;2084052;28;20057;-86
2021/06/20 02:12:12;;;;;;;12.38;11.07;;;19.80;90.70;;;;;;2088650;28;20098;-87
2021/06/20 02:13:13;;;;;;;12.82;11.35;;;19.80;90.70;;;;;;2073857;28;20111;-87
2021/06/20 02:14:16;;;;;;;12.50;11.10;;;19.80;90.70;;;;;;2074684;28;20092;-87
2021/06/20 02:15:17;;;;;;;11.82;10.52;;;19.80;90.70;;;;;;2074690;28;20030;-87
2021/06/20 02:16:18;;;;;;;13.32;11.90;;;19.80;90.70;;;;;;2086039;28;20029;-87
2021/06/20 02:17:23;;;;;;;12.80;11.43;;;19.80;90.70;;;;;;2090076;28;20032;-86
2021/06/20 02:18:23;;;;;;;12.88;11.55;;;19.80;90.70;;;;;;2087211;28;20115;-87
2021/06/20 02:19:24;;;;;;;12.48;11.18;;;19.80;90.70;;;;;;2092463;28;20028;-87
2021/06/20 02:20:25;;;;;;;11.90;10.60;;;19.80;90.70;;;;;;2088813;28;20041;-87
2021/06/20 02:21:25;;;;;;;11.82;10.63;;;19.80;90.70;;;;;;2076567;28;20515;-87
2021/06/20 02:22:28;;;;;;;12.25;10.95;;;19.80;90.70;;;;;;2074152;28;20484;-87
2021/06/20 02:23:29;;;;;;;12.07;10.55;;;19.80;91.00;;;;;;2079441;28;20017;-87
2021/06/20 02:24:29;;;;;;;12.02;10.77;;;19.80;90.70;;;;;;2082510;28;20044;-87
2021/06/20 02:25:30;;;;;;;12.68;11.23;;;19.80;90.70;;;;;;2066750;28;20026;-87
2021/06/20 02:26:30;;;;;;;12.85;11.13;;;19.80;90.80;;;;;;2073436;28;20034;-87
2021/06/20 02:27:32;;;;;;;11.90;10.68;;;19.80;90.80;;;;;;2087814;28;20025;-87
2021/06/20 02:28:32;;;;;;;11.35;10.15;;;19.80;90.80;;;;;;2073897;28;20101;-87
2021/06/20 02:29:33;;;;;;;12.02;10.23;;;19.80;90.80;;;;;;2073408;28;20022;-87
2021/06/20 02:30:34;;;;;;;12.10;10.90;;;19.90;90.80;;;;;;2077237;28;20026;-87
2021/06/20 02:31:35;;;;;;;12.07;10.85;;;19.90;90.80;;;;;;2065892;28;20144;-87
2021/06/20 02:32:37;;;;;;;12.00;10.80;;;19.90;90.80;;;;;;2061058;28;20161;-87
2021/06/20 02:33:37;;;;;;;12.23;10.80;;;19.90;90.80;;;;;;2074373;28;20117;-86
2021/06/20 02:34:39;;;;;;;12.48;10.60;;;19.90;90.80;;;;;;2076371;28;20056;-86
2021/06/20 02:35:40;;;;;;;11.23;9.98;;;19.90;90.80;;;;;;2074243;28;20117;-87
2021/06/20 02:36:40;;;;;;;11.43;10.25;;;19.90;90.80;;;;;;2082548;28;20028;-87
2021/06/20 02:37:42;;;;;;;11.40;10.15;;;20.00;90.80;;;;;;2072137;28;20179;-87
2021/06/20 02:38:43;;;;;;;11.57;10.38;;;19.90;90.70;;;;;;2065589;28;20030;-88
2021/06/20 02:39:44;;;;;;;11.40;10.20;;;20.00;90.80;;;;;;2080666;28;20117;-86
2021/06/20 02:40:44;;;;;;;11.88;10.60;;;20.00;90.70;;;;;;2088206;28;20029;-87
2021/06/20 02:41:49;;;;;;;12.10;10.85;;;20.00;90.70;;;;;;2103907;28;20024;-88
2021/06/20 02:42:50;;;;;;;11.85;10.65;;;20.00;90.70;;;;;;2087566;28;20045;-87
2021/06/20 02:43:51;;;;;;;12.50;10.38;;;20.00;90.70;;;;;;2086280;28;20032;-86
2021/06/20 02:44:53;;;;;;;12.85;11.45;;;20.00;90.70;;;;;;2095719;28;20037;-87
2021/06/20 02:45:53;;;;;;;12.10;10.90;;;20.00;90.70;;;;;;2098352;28;20414;-86
2021/06/20 02:46:57;;;;;;;13.57;11.02;;;20.00;90.70;;;;;;2090729;28;20472;-87
2021/06/20 02:47:58;;;;;;;12.68;11.27;;;20.10;90.70;;;;;;2093539;28;20422;-88
2021/06/20 02:48:58;;;;;;;12.82;11.43;;;20.00;90.70;;;;;;2094249;28;20346;-87
2021/06/20 02:49:59;;;;;;;12.73;11.27;;;20.00;90.70;;;;;;2078290;28;20045;-86
2021/06/20 02:51:00;;;;;;;13.93;11.98;;;20.00;90.70;;;;;;2072745;28;20046;-86
2021/06/20 02:52:01;;;;;;;12.60;11.30;;;20.00;90.70;;;;;;2064918;28;20480;-86
2021/06/20 02:53:02;;;;;;;13.07;11.68;;;20.00;90.70;;;;;;2071528;28;20018;-88
2021/06/20 02:54:03;;;;;;;13.40;12.00;;;20.00;90.70;;;;;;2063315;28;20031;-87
2021/06/20 02:55:05;;;;;;;13.20;11.80;;;20.00;90.70;;;;;;2064449;28;20069;-87
2021/06/20 02:56:05;;;;;;;13.00;11.60;;;20.00;90.70;;;;;;2074716;28;20064;-87
2021/06/20 02:57:06;;;;;;;13.32;11.93;;;20.00;90.70;;;;;;2087803;28;20021;-87
2021/06/20 02:58:07;;;;;;;13.55;12.15;;;20.00;90.70;;;;;;2082032;28;20083;-87
2021/06/20 02:59:07;;;;;;;13.02;11.63;;;20.00;90.80;;;;;;2068363;28;20030;-88
2021/06/20 03:00:09;;;;;;;13.80;12.23;;;20.00;90.70;;;;;;2082231;28;20033;-88
2021/06/20 03:01:10;;;;;;;13.82;12.32;;;20.00;90.70;;;;;;2089017;28;20067;-87
2021/06/20 03:02:10;;;;;;;14.38;12.60;;;20.00;90.80;;;;;;2090939;28;20491;-87
2021/06/20 03:03:11;;;;;;;14.20;12.07;;;20.00;90.80;;;;;;2088899;28;20048;-87
2021/06/20 03:04:12;;;;;;;14.18;12.43;;;20.00;90.80;;;;;;2065952;28;20125;-87
2021/06/20 03:05:13;;;;;;;15.13;12.50;;;20.00;90.80;;;;;;2066179;28;20049;-87
2021/06/20 03:06:15;;;;;;;15.13;12.40;;;20.00;90.80;;;;;;2072785;28;20030;-87
2021/06/20 03:07:15;;;;;;;14.23;12.73;;;20.00;90.80;;;;;;2074468;28;20028;-88
2021/06/20 03:08:16;;;;;;;13.70;12.10;;;20.00;90.80;;;;;;2078894;28;20026;-88
2021/06/20 03:09:17;;;;;;;13.52;12.13;;;20.00;90.80;;;;;;2073850;28;20050;-88
2021/06/20 03:10:17;;;;;;;13.70;12.23;;;20.00;90.80;;;;;;2075323;28;20176;-87
2021/06/20 03:11:19;;;;;;;14.13;12.50;;;20.00;90.80;;;;;;2090223;28;20030;-87
2021/06/20 03:12:20;;;;;;;14.68;12.50;;;20.00;90.80;;;;;;2090298;28;20022;-87
2021/06/20 03:13:21;;;;;;;14.95;12.30;;;20.00;90.80;;;;;;2075947;28;20116;-87
2021/06/20 03:14:21;;;;;;;16.50;12.38;;;20.00;90.80;;;;;;2073409;28;20038;-87
2021/06/20 03:15:22;;;;;;;14.75;13.10;;;20.10;90.80;;;;;;2074036;28;20042;-87
2021/06/20 03:16:23;;;;;;;14.88;12.35;;;20.00;90.80;;;;;;2074151;28;20125;-87
2021/06/20 03:17:23;;;;;;;14.07;12.60;;;20.00;90.80;;;;;;2064760;28;20484;-86
2021/06/20 03:18:24;;;;;;;14.63;13.13;;;20.00;90.80;;;;;;2067936;28;20046;-87
2021/06/20 03:19:25;;;;;;;14.15;12.27;;;20.00;90.80;;;;;;2077327;28;20040;-88
2021/06/20 03:20:26;;;;;;;13.85;12.35;;;20.00;90.80;;;;;;2064963;28;20114;-88
2021/06/20 03:21:28;;;;;;;15.85;12.70;;;20.00;90.80;;;;;;2073528;28;20389;-88
2021/06/20 03:22:29;;;;;;;14.43;12.93;;;20.00;90.80;;;;;;2074013;28;20022;-88
2021/06/20 03:23:29;;;;;;;16.90;13.50;;;20.00;91.00;;;;;;2076727;28;20455;-88
2021/06/20 03:24:35;;;;;;;14.73;13.13;;;20.00;90.80;;;;;;2066149;28;20072;-87
2021/06/20 03:25:35;;;;;;;15.23;13.30;;;20.00;90.80;;;;;;2067594;28;20031;-87
2021/06/20 03:26:36;;;;;;;15.05;13.55;;;20.00;90.80;;;;;;2077977;28;20021;-87
2021/06/20 03:27:37;;;;;;;15.82;13.60;;;20.00;90.80;;;;;;2082034;28;20061;-87
2021/06/20 03:28:38;;;;;;;15.07;13.50;;;20.00;91.00;;;;;;2089254;28;20048;-87
2021/06/20 03:29:39;;;;;;;15.48;13.75;;;20.00;90.80;;;;;;2090402;28;20376;-86
2021/06/20 03:30:40;;;;;;;15.50;13.52;;;20.00;90.70;;;;;;2080925;28;20017;-87
2021/06/20 03:31:40;;;;;;;16.73;14.50;;;20.00;90.80;;;;;;2073966;28;20587;-87
2021/06/20 03:32:41;;;;;;;16.98;14.52;;;20.00;90.80;;;;;;2089537;28;20024;-86
2021/06/20 03:33:42;;;;;;;16.88;15.07;;;19.90;90.70;;;;;;2081770;28;20033;-87
2021/06/20 03:34:43;;;;;;;16.77;14.82;;;19.90;90.80;;;;;;2069466;28;20041;-87
2021/06/20 03:35:43;;;;;;;16.02;14.32;;;19.90;90.80;;;;;;2085169;28;20056;-87
2021/06/20 03:36:44;;;;;;;16.90;14.98;;;19.90;90.80;;;;;;2091026;28;20045;-87
2021/06/20 03:37:45;;;;;;;16.38;14.57;;;19.90;90.80;;;;;;2095076;28;20070;-86
2021/06/20 03:38:46;;;;;;;19.55;16.35;;;19.90;90.80;;;;;;2086303;28;20037;-87
2021/06/20 03:39:46;;;;;;;18.83;16.83;;;19.90;90.70;;;;;;2084194;28;20120;-88
2021/06/20 03:40:47;;;;;;;19.20;17.10;;;19.80;90.70;;;;;;2084818;28;20351;-88
2021/06/20 03:41:48;;;;;;;17.77;15.88;;;19.80;90.70;;;;;;2089664;28;20025;-87
2021/06/20 03:42:48;;;;;;;20.98;17.98;;;19.80;90.70;;;;;;2074421;28;20026;-86
2021/06/20 03:43:49;;;;;;;21.23;18.20;;;19.80;90.70;;;;;;2081832;28;20023;-87
2021/06/20 03:44:50;;;;;;;20.20;18.08;;;19.70;90.70;;;;;;2089545;28;21685;-87
2021/06/20 03:45:51;;;;;;;18.98;16.98;;;19.70;91.00;;;;;;2074786;28;20428;-87
2021/06/20 03:46:52;;;;;;;20.95;17.50;;;19.70;90.70;;;;;;2069015;28;20042;-88
2021/06/20 03:47:52;;;;;;;19.67;17.58;;;19.60;90.70;;;;;;2085300;28;20050;-87
2021/06/20 03:48:53;;;;;;;21.15;18.85;;;19.60;90.70;;;;;;2089969;28;20036;-88
2021/06/20 03:49:55;;;;;;;20.05;17.73;;;19.60;90.80;;;;;;2079109;28;20045;-88
2021/06/20 03:50:56;;;;;;;19.83;17.45;;;19.60;90.70;;;;;;2080537;28;20032;-88
2021/06/20 03:51:57;;;;;;;20.73;18.38;;;19.50;91.00;;;;;;2071649;28;20484;-88
2021/06/20 03:52:57;;;;;;;20.13;18.00;;;19.50;90.70;;;;;;2073474;28;20098;-88
2021/06/20 03:53:58;;;;;;;21.50;19.20;;;19.50;90.80;;;;;;2075146;28;20036;-88
2021/06/20 03:54:59;;;;;;;22.13;19.23;;;19.50;90.80;;;;;;2063469;28;20031;-87
2021/06/20 03:56:00;;;;;;;22.10;18.77;;;19.50;90.80;;;;;;2049124;28;20038;-86
2021/06/20 03:57:00;;;;;;;20.33;17.85;;;19.40;90.80;;;;;;2064942;28;20022;-87
2021/06/20 03:58:05;;;;;;;20.15;17.85;;;19.40;90.80;;;;;;2057370;28;20031;-87
2021/06/20 03:59:09;;;;;;;20.13;17.92;;;19.40;90.80;;;;;;2065899;28;20045;-87
2021/06/20 04:00:11;;;;;;;20.08;17.83;;;19.40;90.80;;;;;;2069936;28;20029;-87
2021/06/20 04:01:12;;;;;;;21.65;19.42;;;19.40;90.80;;;;;;2071498;28;20508;-87
2021/06/20 04:02:12;;;;;;;21.63;19.10;;;19.40;90.80;;;;;;2070290;28;20037;-87
2021/06/20 04:03:13;;;;;;;19.20;17.17;;;19.30;90.80;;;;;;2057324;28;20031;-87
2021/06/20 04:04:14;;;;;;;20.15;17.98;;;19.30;90.80;;;;;;2070836;28;20045;-87
2021/06/20 04:05:15;;;;;;;19.17;16.38;;;19.30;90.80;;;;;;2062998;28;20404;-86
2021/06/20 04:06:15;;;;;;;19.15;17.05;;;19.30;90.80;;;;;;2065311;28;20026;-87
2021/06/20 04:07:16;;;;;;;19.20;17.20;;;19.30;90.80;;;;;;2072273;28;20076;-86
2021/06/20 04:08:17;;;;;;;17.88;15.98;;;19.20;90.80;;;;;;2077209;28;20030;-86
2021/06/20 04:09:18;;;;;;;19.92;15.90;;;19.20;90.80;;;;;;2049287;29;20421;-87
2021/06/20 04:10:19;;;;;;;16.52;14.73;;;19.10;90.80;;;;;;2057018;28;20090;-87
2021/06/20 04:11:20;;;;;;;18.58;16.58;;;19.10;90.80;;;;;;2076365;28;20029;-87
2021/06/20 04:12:20;;;;;;;16.25;14.55;;;19.10;90.80;;;;;;2065313;28;20022;-87
2021/06/20 04:13:21;;;;;;;17.70;15.52;;;19.10;90.80;;;;;;2067645;28;20042;-86
2021/06/20 04:14:22;;;;;;;16.55;14.77;;;19.10;90.80;;;;;;2065075;28;20026;-86
2021/06/20 04:15:23;;;;;;;16.45;14.23;;;19.10;90.80;;;;;;2073324;28;20504;-86
2021/06/20 04:16:23;;;;;;;15.75;13.95;;;19.10;90.80;;;;;;2071252;28;20479;-87
2021/06/20 04:17:26;;;;;;;15.00;13.27;;;19.00;90.80;;;;;;2064492;28;20033;-86
2021/06/20 04:18:27;;;;;;;14.85;12.80;;;19.00;90.80;;;;;;2065528;28;20069;-86
2021/06/20 04:19:28;;;;;;;16.42;14.55;;;19.00;90.80;;;;;;2065159;28;20038;-85
2021/06/20 04:20:28;;;;;;;16.30;13.57;;;19.00;91.10;;;;;;2063711;28;20026;-86
2021/06/20 04:21:29;;;;;;;14.90;13.20;;;19.00;91.10;;;;;;2064353;28;20511;-86
2021/06/20 04:22:29;;;;;;;15.70;13.50;;;18.90;90.80;;;;;;2072197;28;20578;-86
2021/06/20 04:23:30;;;;;;;16.27;13.45;;;18.90;90.80;;;;;;2056400;28;20031;-86
2021/06/20 04:24:31;;;;;;;15.02;13.10;;;19.00;90.80;;;;;;2057041;28;20520;-86
2021/06/20 04:25:32;;;;;;;18.35;15.25;;;18.90;90.80;;;;;;2064683;28;20038;-86
2021/06/20 04:26:32;;;;;;;16.67;14.50;;;18.90;90.80;;;;;;2073232;28;20029;-86
2021/06/20 04:27:33;;;;;;;16.00;13.57;;;18.90;90.80;;;;;;2074435;28;20033;-86
2021/06/20 04:28:34;;;;;;;16.88;13.63;;;18.90;90.80;;;;;;2079581;28;20021;-86
2021/06/20 04:29:35;;;;;;;16.08;13.02;;;18.90;90.80;;;;;;2073430;28;20125;-86
2021/06/20 04:30:35;;;;;;;15.65;13.43;;;18.90;90.80;;;;;;2073276;28;20026;-86
2021/06/20 04:31:36;;;;;;;15.85;13.32;;;18.80;90.80;;;;;;2072435;28;20028;-86
2021/06/20 04:32:41;;;;;;;14.68;12.45;;;18.80;90.80;;;;;;2074491;28;20570;-86
2021/06/20 04:33:42;;;;;;;14.77;12.98;;;18.80;90.80;;;;;;2081435;28;20480;-87
2021/06/20 04:34:43;;;;;;;14.40;12.65;;;18.80;90.80;;;;;;2081408;28;20026;-88
2021/06/20 04:35:43;;;;;;;13.32;11.75;;;18.80;90.80;;;;;;2085900;28;20053;-87
2021/06/20 04:36:44;;;;;;;14.45;12.27;;;18.80;90.80;;;;;;2077315;28;20036;-87
2021/06/20 04:37:45;;;;;;;14.00;12.05;;;18.80;90.80;;;;;;2084252;28;20032;-86
2021/06/20 04:38:47;;;;;;;14.63;12.55;;;18.80;90.80;;;;;;2085630;28;20502;-86
2021/06/20 04:39:48;;;;;;;14.15;11.75;;;18.80;90.80;;;;;;2081401;28;20040;-86
2021/06/20 04:40:50;;;;;;;15.20;12.75;;;18.80;90.80;;;;;;2080593;28;20045;-86
2021/06/20 04:41:52;;;;;;;15.85;12.55;;;18.80;90.80;;;;;;2057733;28;20513;-85
2021/06/20 04:42:58;;;;;;;19.23;15.25;;;18.80;90.80;;;;;;2065079;28;20038;-86
2021/06/20 04:44:01;;;;;;;17.17;14.55;;;18.80;90.80;;;;;;2081084;28;20537;-87
2021/06/20 04:45:03;;;;;;;17.50;15.02;;;18.80;90.70;;;;;;2084214;28;20103;-86
2021/06/20 04:46:30;;;;;;;16.58;14.30;;;18.80;90.70;;;;;;2089379;28;20550;-87
2021/06/20 04:47:31;;;;;;;15.30;12.65;;;18.80;90.70;;;;;;2089820;28;20028;-86
2021/06/20 04:48:32;;;;;;;14.98;13.15;;;18.80;90.70;;;;;;2084234;28;20037;-85
2021/06/20 04:49:33;;;;;;;15.93;13.63;;;18.80;90.70;;;;;;2084317;28;20507;-87
2021/06/20 04:50:33;;;;;;;16.80;14.05;;;18.80;90.70;;;;;;2094199;28;20051;-86
2021/06/20 04:51:39;;;;;;;18.17;14.65;;;18.80;90.70;;;;;;2093304;28;20025;-87
2021/06/20 04:52:42;;;;;;;15.98;13.45;;;18.90;90.70;;;;;;2077840;28;20497;-86
2021/06/20 04:53:42;;;;;;;14.93;12.98;;;18.90;90.70;;;;;;2079560;28;20701;-86
2021/06/20 04:54:49;;;;;;;15.75;13.35;;;18.90;90.70;;;;;;2075511;28;20029;-86
2021/06/20 04:55:50;;;;;;;17.60;14.15;;;18.90;90.70;;;;;;2070460;28;20536;-86
2021/06/20 04:56:50;;;;;;;15.90;13.90;;;18.90;90.70;;;;;;2069766;28;20029;-86
2021/06/20 04:57:51;;;;;;;20.35;16.58;;;18.90;90.70;;;;;;2073027;28;20116;-86
2021/06/20 04:58:52;;;;;;;19.77;16.20;;;18.90;90.70;;;;;;2072016;28;20412;-85
2021/06/20 05:00:01;;;;;;;19.35;15.60;;;18.90;90.70;;;;;;2072911;28;20111;-87
2021/06/20 05:01:01;;;;;;;18.13;14.98;;;18.90;90.70;;;;;;2079635;28;20045;-86
2021/06/20 05:02:02;;;;;;;19.25;15.52;;;18.90;90.90;;;;;;2086838;28;20634;-85
2021/06/20 05:03:03;;;;;;;18.65;14.93;;;18.90;90.60;;;;;;2084624;28;20032;-86
2021/06/20 05:04:05;;;;;;;17.83;14.65;;;18.90;90.60;;;;;;2072701;28;20498;-86
2021/06/20 05:05:06;;;;;;;18.10;14.88;;;18.90;90.60;;;;;;2081541;28;20040;-86
2021/06/20 05:06:07;;;;;;;18.73;15.45;;;18.90;90.60;;;;;;2082391;28;20025;-86
2021/06/20 05:07:09;;;;;;;19.08;15.43;;;18.90;90.60;;;;;;2073157;28;20037;-86
2021/06/20 05:08:10;;;;;;;18.83;15.05;;;18.90;90.60;;;;;;2067232;28;20106;-86
2021/06/20 05:09:10;;;;;;;16.73;13.85;;;18.90;90.60;;;;;;2081165;28;20042;-86
2021/06/20 05:10:11;;;;;;;18.40;15.10;;;18.90;90.60;;;;;;2089447;28;20057;-85
2021/06/20 05:11:12;;;;;;;18.00;14.98;;;18.90;90.60;;;;;;2080790;28;20032;-86
2021/06/20 05:12:13;;;;;;;16.92;14.57;;;18.90;90.60;;;;;;2080731;28;20514;-86